Time;durP1;ratioP1;P1;durP2;ratioP2;P2;SDS_P1;SDS_P2;PMS_P1;PMS_P2;Temp;Humidity;BMP_temperature;BMP_pressure;BME280_temperature;BME280_humidity;BME280_pressure;Samples;Min_cycle;Max_cycle;Signal;HPM_P1;HPM_P2
2022/04/01 00:01:05;;;;;;;10.40;8.70;;;;;;;;;;5093360;28;20173;-76
2022/04/01 00:03:31;;;;;;;9.93;8.90;;;;;;;;;;5092985;28;20201;-77
2022/04/01 00:05:57;;;;;;;12.23;9.77;;;;;;;;;;5076630;28;20174;-77
2022/04/01 00:08:23;;;;;;;10.70;8.80;;;;;;;;;;5093398;28;20259;-76
2022/04/01 00:10:50;;;;;;;10.30;8.97;;;;;;;;;;5076364;28;20181;-77
2022/04/01 00:13:15;;;;;;;10.60;8.87;;;;;;;;;;5076015;28;20200;-76
2022/04/01 00:15:41;;;;;;;11.60;8.60;;;;;;;;;;5076253;28;20211;-77
2022/04/01 00:18:08;;;;;;;11.33;8.87;;;;;;;;;;5093168;28;20176;-77
2022/04/01 00:20:34;;;;;;;9.83;8.17;;;;;;;;;;5092887;28;20170;-77
2022/04/01 00:23:00;;;;;;;11.23;8.93;;;;;;;;;;5092603;28;20296;-76
2022/04/01 00:25:26;;;;;;;10.17;8.47;;;;;;;;;;5093154;28;20253;-76
2022/04/01 00:27:52;;;;;;;11.23;9.07;;;;;;;;;;5093188;28;20177;-77
2022/04/01 00:30:19;;;;;;;9.77;8.43;;;;;;;;;;5092736;28;20279;-77
2022/04/01 00:32:45;;;;;;;9.30;7.50;;;;;;;;;;5092562;28;20543;-77
2022/04/01 00:35:11;;;;;;;10.37;8.40;;;;;;;;;;5075756;28;20233;-77
2022/04/01 00:37:38;;;;;;;8.27;7.40;;;;;;;;;;5092540;28;20184;-77
2022/04/01 00:40:04;;;;;;;9.63;7.90;;;;;;;;;;5075948;28;20187;-77
2022/04/01 00:42:30;;;;;;;9.80;8.17;;;;;;;;;;5093246;28;20209;-77
2022/04/01 00:44:58;;;;;;;10.27;8.53;;;;;;;;;;5075782;28;20185;-77
2022/04/01 00:47:24;;;;;;;9.20;8.20;;;;;;;;;;5092443;28;20265;-77
2022/04/01 00:49:50;;;;;;;8.67;7.27;;;;;;;;;;5092279;28;20178;-77
2022/04/01 00:52:17;;;;;;;9.30;7.70;;;;;;;;;;5092462;28;20201;-76
2022/04/01 00:54:43;;;;;;;8.60;7.13;;;;;;;;;;5092333;28;20201;-77
2022/04/01 00:57:11;;;;;;;8.37;7.27;;;;;;;;;;5093565;28;20181;-76
2022/04/01 00:59:37;;;;;;;8.27;7.30;;;;;;;;;;5092324;28;20172;-77
2022/04/01 01:02:04;;;;;;;9.40;7.50;;;;;;;;;;5091897;28;20335;-77
2022/04/01 01:04:30;;;;;;;8.07;7.10;;;;;;;;;;5091964;28;20226;-76
2022/04/01 01:06:57;;;;;;;8.33;6.83;;;;;;;;;;5075292;28;20667;-76
2022/04/01 01:09:25;;;;;;;9.27;7.27;;;;;;;;;;5092088;28;20553;-77
2022/04/01 01:11:52;;;;;;;8.50;7.60;;;;;;;;;;5075109;28;20203;-76
2022/04/01 01:14:38;;;;;;;8.13;7.20;;;;;;;;;;5092038;28;20199;-76
2022/04/01 01:17:07;;;;;;;7.70;6.90;;;;;;;;;;5091671;28;20299;-76
2022/04/01 01:19:33;;;;;;;8.20;6.87;;;;;;;;;;5075188;28;20177;-76
2022/04/01 01:22:00;;;;;;;8.27;6.90;;;;;;;;;;5074833;28;20194;-76
2022/04/01 01:24:26;;;;;;;7.90;7.10;;;;;;;;;;5091687;28;20253;-77
2022/04/01 01:26:53;;;;;;;7.47;6.67;;;;;;;;;;5091690;28;20179;-76
2022/04/01 01:29:25;;;;;;;8.20;7.30;;;;;;;;;;5074880;28;20183;-77
2022/04/01 01:31:52;;;;;;;8.33;7.43;;;;;;;;;;5092626;28;20273;-76
2022/04/01 01:34:18;;;;;;;7.77;6.70;;;;;;;;;;5074838;28;20173;-77
2022/04/01 01:36:44;;;;;;;7.80;7.00;;;;;;;;;;5091669;28;20671;-77
2022/04/01 01:39:10;;;;;;;8.20;7.30;;;;;;;;;;5074697;28;20217;-77
2022/04/01 01:41:36;;;;;;;7.83;7.03;;;;;;;;;;5091178;28;20175;-77
2022/04/01 01:44:04;;;;;;;8.90;7.40;;;;;;;;;;5074733;28;20212;-77
2022/04/01 01:46:30;;;;;;;7.70;6.90;;;;;;;;;;5075170;28;20177;-77
2022/04/01 01:48:56;;;;;;;8.03;7.23;;;;;;;;;;5090839;28;20627;-77
2022/04/01 01:56:52;;;;;;;7.67;6.80;;;;;;;;;;5091828;28;20265;-77
2022/04/01 01:59:18;;;;;;;7.73;6.77;;;;;;;;;;5074664;28;20208;-76
2022/04/01 02:01:45;;;;;;;9.20;7.50;;;;;;;;;;5091250;28;20245;-77
2022/04/01 02:04:11;;;;;;;8.13;7.33;;;;;;;;;;5090948;28;20236;-77
2022/04/01 02:06:38;;;;;;;7.77;6.97;;;;;;;;;;5091061;28;20176;-77
2022/04/01 02:09:04;;;;;;;8.00;7.20;;;;;;;;;;5092671;28;20177;-76
2022/04/01 02:11:30;;;;;;;8.50;7.57;;;;;;;;;;5074134;28;20205;-76
2022/04/01 02:13:57;;;;;;;8.50;7.47;;;;;;;;;;5074048;28;20191;-76
2022/04/01 02:16:23;;;;;;;7.90;7.10;;;;;;;;;;5074478;28;20184;-77
2022/04/01 02:18:49;;;;;;;8.33;7.23;;;;;;;;;;5091179;28;20178;-77
2022/04/01 02:21:16;;;;;;;8.27;6.93;;;;;;;;;;5090884;28;20212;-77
2022/04/01 02:23:43;;;;;;;9.03;7.30;;;;;;;;;;5074078;28;20651;-77
2022/04/01 02:26:10;;;;;;;7.73;6.93;;;;;;;;;;5092167;28;20207;-77
2022/04/01 02:28:37;;;;;;;8.07;7.27;;;;;;;;;;5090830;28;20176;-76
2022/04/01 02:31:04;;;;;;;8.90;7.47;;;;;;;;;;5091008;28;20234;-77
2022/04/01 02:33:31;;;;;;;9.23;7.70;;;;;;;;;;5090870;28;20589;-77
2022/04/01 02:35:57;;;;;;;8.90;7.87;;;;;;;;;;5092080;28;20200;-77
2022/04/01 02:38:25;;;;;;;9.17;7.50;;;;;;;;;;5090836;28;20182;-77
2022/04/01 02:40:51;;;;;;;9.10;7.80;;;;;;;;;;5074588;28;20190;-77
2022/04/01 02:43:17;;;;;;;10.30;8.37;;;;;;;;;;5090957;28;20226;-76
2022/04/01 02:45:43;;;;;;;10.83;8.50;;;;;;;;;;5074169;28;20269;-77
2022/04/01 02:48:09;;;;;;;9.93;8.53;;;;;;;;;;5074220;28;20209;-77
2022/04/01 02:50:35;;;;;;;10.47;8.70;;;;;;;;;;5074018;28;20204;-77
2022/04/01 03:03:24;;;;;;;11.73;9.40;;;;;;;;;;5410981;22;20219;-76
2022/04/01 03:05:50;;;;;;;12.17;10.10;;;;;;;;;;5097810;28;20172;-76
2022/04/01 03:08:16;;;;;;;13.27;9.70;;;;;;;;;;5097904;28;20652;-77
2022/04/01 03:10:43;;;;;;;12.43;9.70;;;;;;;;;;5097931;28;20199;-77
2022/04/01 03:13:10;;;;;;;13.17;10.47;;;;;;;;;;5080781;28;20291;-77
2022/04/01 03:15:37;;;;;;;13.70;10.23;;;;;;;;;;5097588;28;20179;-77
2022/04/01 03:18:03;;;;;;;14.23;9.83;;;;;;;;;;5148391;22;20234;-76
2022/04/01 03:20:35;;;;;;;12.30;10.03;;;;;;;;;;5114546;28;20194;-76
2022/04/01 03:23:01;;;;;;;15.30;11.10;;;;;;;;;;5114400;28;20279;-76
2022/04/01 03:25:32;;;;;;;15.17;11.40;;;;;;;;;;5114609;28;20171;-77
2022/04/01 03:27:58;;;;;;;15.23;11.07;;;;;;;;;;5098080;28;20191;-76
2022/04/01 03:30:24;;;;;;;14.73;11.50;;;;;;;;;;5114259;28;20254;-76
2022/04/01 03:32:50;;;;;;;14.63;11.20;;;;;;;;;;5114198;28;20218;-76
2022/04/01 03:35:17;;;;;;;14.17;11.13;;;;;;;;;;5114284;28;20188;-76
2022/04/01 03:37:45;;;;;;;16.17;11.93;;;;;;;;;;5097394;28;20200;-76
2022/04/01 03:40:14;;;;;;;14.87;10.60;;;;;;;;;;5097353;28;20194;-77
2022/04/01 03:42:40;;;;;;;16.93;11.33;;;;;;;;;;5097127;28;20176;-76
2022/04/01 03:45:06;;;;;;;16.27;12.20;;;;;;;;;;5114135;28;20172;-76
2022/04/01 03:47:42;;;;;;;14.87;11.00;;;;;;;;;;5097297;28;20661;-76
2022/04/01 03:50:10;;;;;;;14.47;10.97;;;;;;;;;;5114042;28;20244;-76
2022/04/01 03:52:36;;;;;;;15.13;11.63;;;;;;;;;;5096840;28;20228;-76
2022/04/01 03:55:05;;;;;;;16.13;11.03;;;;;;;;;;5113526;28;20175;-76
2022/04/01 03:57:39;;;;;;;14.67;11.17;;;;;;;;;;5113748;28;20191;-76
2022/04/01 04:00:12;;;;;;;14.93;11.10;;;;;;;;;;5114944;28;20515;-76
2022/04/01 04:02:39;;;;;;;14.30;11.07;;;;;;;;;;5114828;28;20186;-76
2022/04/01 04:05:07;;;;;;;17.73;11.53;;;;;;;;;;5113669;28;20183;-76
2022/04/01 04:07:33;;;;;;;16.03;11.03;;;;;;;;;;5113448;28;20191;-76
2022/04/01 04:09:59;;;;;;;14.07;11.20;;;;;;;;;;5114984;28;20172;-76
2022/04/01 04:12:30;;;;;;;14.00;10.67;;;;;;;;;;5112895;28;20262;-76
2022/04/01 04:14:57;;;;;;;16.10;11.60;;;;;;;;;;5113587;28;20178;-76
2022/04/01 04:17:39;;;;;;;14.93;11.27;;;;;;;;;;5113145;28;20211;-76
2022/04/01 04:20:09;;;;;;;14.90;11.20;;;;;;;;;;5113288;28;20263;-76
2022/04/01 04:22:54;;;;;;;14.65;11.70;;;;;;;;;;5114290;28;20642;-76
2022/04/01 04:25:22;;;;;;;14.90;11.33;;;;;;;;;;5113328;28;20196;-76
2022/04/01 04:27:56;;;;;;;16.07;11.77;;;;;;;;;;5113228;28;20323;-76
2022/04/01 04:30:25;;;;;;;14.70;10.93;;;;;;;;;;5113103;28;20197;-76
2022/04/01 04:32:56;;;;;;;15.50;11.53;;;;;;;;;;5096312;28;20603;-76
2022/04/01 04:35:23;;;;;;;15.13;11.10;;;;;;;;;;5112959;28;20191;-76
2022/04/01 04:37:51;;;;;;;14.60;10.90;;;;;;;;;;5112941;28;20195;-76
2022/04/01 04:40:17;;;;;;;17.10;11.77;;;;;;;;;;5113053;28;20180;-76
2022/04/01 04:42:51;;;;;;;17.33;11.80;;;;;;;;;;5095635;28;20649;-76
2022/04/01 04:45:18;;;;;;;15.20;11.40;;;;;;;;;;5096887;28;20198;-76
2022/04/01 04:47:44;;;;;;;18.53;12.57;;;;;;;;;;5096097;28;20200;-76
2022/04/01 04:50:11;;;;;;;16.37;12.17;;;;;;;;;;5095900;28;20261;-76
2022/04/01 04:52:39;;;;;;;17.40;12.47;;;;;;;;;;5112512;28;20568;-76
2022/04/01 04:55:10;;;;;;;18.27;12.90;;;;;;;;;;5095798;28;20180;-76
2022/04/01 04:57:39;;;;;;;18.60;12.93;;;;;;;;;;5112486;28;20188;-76
2022/04/01 05:00:05;;;;;;;19.90;12.93;;;;;;;;;;5095934;28;20529;-76
2022/04/01 05:02:42;;;;;;;19.63;12.70;;;;;;;;;;5113567;28;20214;-75
2022/04/01 05:05:21;;;;;;;19.13;12.90;;;;;;;;;;5112482;28;20193;-77
2022/04/01 05:07:56;;;;;;;19.30;13.07;;;;;;;;;;5112443;28;20269;-77
2022/04/01 05:10:25;;;;;;;17.63;12.30;;;;;;;;;;5112366;28;20199;-76
2022/04/01 05:13:15;;;;;;;16.13;12.07;;;;;;;;;;5112136;28;20587;-77
2022/04/01 05:15:41;;;;;;;21.83;12.90;;;;;;;;;;5065885;28;20291;-77
2022/04/01 05:18:35;;;;;;;16.50;12.07;;;;;;;;;;5095507;28;20305;-77
2022/04/01 05:21:04;;;;;;;17.57;12.67;;;;;;;;;;5112206;28;20676;-76
2022/04/01 05:23:39;;;;;;;20.30;12.80;;;;;;;;;;5094829;28;20244;-77
2022/04/01 05:26:11;;;;;;;18.87;12.47;;;;;;;;;;5113364;28;20257;-77
2022/04/01 05:28:40;;;;;;;18.77;13.63;;;;;;;;;;5112071;28;20174;-77
2022/04/01 05:31:20;;;;;;;15.63;11.40;;;;;;;;;;5095146;28;20187;-76
2022/04/01 05:34:04;;;;;;;18.03;11.63;;;;;;;;;;5095156;28;20187;-75
2022/04/01 05:36:31;;;;;;;14.77;11.03;;;;;;;;;;5112226;28;20738;-75
2022/04/01 05:38:57;;;;;;;15.23;11.17;;;;;;;;;;5095837;28;20183;-77
2022/04/01 05:41:24;;;;;;;15.57;10.10;;;;;;;;;;5111763;28;20220;-76
2022/04/01 05:43:50;;;;;;;13.97;10.27;;;;;;;;;;5111652;28;20265;-76
2022/04/01 05:46:17;;;;;;;13.57;9.70;;;;;;;;;;5111702;28;20684;-77
2022/04/01 05:48:43;;;;;;;12.40;8.77;;;;;;;;;;5094962;28;20179;-77
2022/04/01 05:51:13;;;;;;;10.23;8.10;;;;;;;;;;5111757;28;20183;-74
2022/04/01 05:53:40;;;;;;;12.47;8.27;;;;;;;;;;5094735;28;20214;-75
2022/04/01 05:56:07;;;;;;;9.87;7.90;;;;;;;;;;5111529;28;20183;-75
2022/04/01 05:58:33;;;;;;;9.73;7.47;;;;;;;;;;5111663;28;20225;-75
2022/04/01 06:01:11;;;;;;;9.17;7.70;;;;;;;;;;5111721;28;20184;-76
2022/04/01 06:03:40;;;;;;;9.53;7.37;;;;;;;;;;5111222;28;20191;-76
2022/04/01 06:06:21;;;;;;;9.07;7.03;;;;;;;;;;5111280;28;20163;-76
2022/04/01 06:09:06;;;;;;;10.37;7.40;;;;;;;;;;5111382;28;20174;-76
2022/04/01 06:11:51;;;;;;;8.40;6.97;;;;;;;;;;5111685;28;20190;-76
2022/04/01 06:14:33;;;;;;;10.30;7.77;;;;;;;;;;5112554;28;20257;-76
2022/04/01 06:17:08;;;;;;;9.10;6.63;;;;;;;;;;5111107;28;20235;-77
2022/04/01 06:19:43;;;;;;;9.53;7.17;;;;;;;;;;5111363;28;20374;-76
2022/04/01 06:22:12;;;;;;;9.00;6.73;;;;;;;;;;5112284;28;20541;-75
2022/04/01 06:24:51;;;;;;;10.93;7.17;;;;;;;;;;5112381;28;20735;-75
2022/04/01 06:27:29;;;;;;;10.47;7.30;;;;;;;;;;5110913;28;20197;-74
2022/04/01 06:30:05;;;;;;;11.77;7.33;;;;;;;;;;5112489;28;20223;-75
2022/04/01 06:32:41;;;;;;;10.63;7.17;;;;;;;;;;5094369;28;20665;-75
2022/04/01 06:35:07;;;;;;;9.63;7.03;;;;;;;;;;5111564;28;20581;-75
2022/04/01 06:37:34;;;;;;;10.03;7.50;;;;;;;;;;5115353;28;20221;-75
2022/04/01 06:40:10;;;;;;;9.87;7.17;;;;;;;;;;5115620;28;20196;-75
2022/04/01 06:42:39;;;;;;;9.50;7.13;;;;;;;;;;5116264;28;20235;-75
2022/04/01 06:45:09;;;;;;;12.20;7.57;;;;;;;;;;5098825;28;20183;-76
2022/04/01 06:47:36;;;;;;;10.53;7.43;;;;;;;;;;5098235;28;20293;-75
2022/04/01 06:50:02;;;;;;;9.00;7.17;;;;;;;;;;5098168;28;20187;-75
2022/04/01 06:52:28;;;;;;;8.77;6.50;;;;;;;;;;5098299;28;20186;-75
2022/04/01 06:54:55;;;;;;;10.83;7.57;;;;;;;;;;5115009;28;20182;-75
2022/04/01 06:57:21;;;;;;;8.97;6.63;;;;;;;;;;5116254;28;20211;-75
2022/04/01 06:59:47;;;;;;;10.67;7.37;;;;;;;;;;5114958;28;20179;-75
2022/04/01 07:02:13;;;;;;;10.80;7.33;;;;;;;;;;5097831;28;20751;-75
2022/04/01 07:04:39;;;;;;;10.43;7.13;;;;;;;;;;5097854;28;20225;-75
2022/04/01 07:07:05;;;;;;;9.93;7.63;;;;;;;;;;5097767;28;20297;-75
2022/04/01 07:09:31;;;;;;;10.30;7.20;;;;;;;;;;5114849;28;20172;-75
2022/04/01 07:12:01;;;;;;;8.93;6.80;;;;;;;;;;5114788;28;20325;-76
2022/04/01 07:14:27;;;;;;;8.80;6.73;;;;;;;;;;5114650;28;20207;-76
2022/04/01 07:16:56;;;;;;;9.27;6.80;;;;;;;;;;5114813;28;20210;-75
2022/04/01 07:19:22;;;;;;;9.57;6.57;;;;;;;;;;5097962;28;20187;-76
2022/04/01 07:21:48;;;;;;;10.37;7.20;;;;;;;;;;5114395;28;20179;-75
2022/04/01 07:24:14;;;;;;;8.87;6.47;;;;;;;;;;5097360;28;20604;-75
2022/04/01 07:26:41;;;;;;;8.93;6.73;;;;;;;;;;5097237;28;20206;-75
2022/04/01 07:29:07;;;;;;;9.37;6.87;;;;;;;;;;5114601;28;20232;-76
2022/04/01 07:34:35;;;;;;;9.20;6.73;;;;;;;;;;5115886;28;20234;-76
2022/04/01 07:37:02;;;;;;;8.90;6.47;;;;;;;;;;5114277;28;20296;-76
2022/04/01 07:39:28;;;;;;;7.77;6.30;;;;;;;;;;5114084;28;20179;-76
2022/04/01 07:41:54;;;;;;;9.13;6.67;;;;;;;;;;5114323;28;20183;-77
2022/04/01 07:44:21;;;;;;;7.97;6.70;;;;;;;;;;5114085;28;20294;-76
2022/04/01 07:46:48;;;;;;;10.60;6.87;;;;;;;;;;5113146;28;20244;-76
2022/04/01 07:49:14;;;;;;;7.77;6.53;;;;;;;;;;5097002;28;20210;-75
2022/04/01 07:51:40;;;;;;;8.57;6.23;;;;;;;;;;5113861;28;20652;-75
2022/04/01 07:54:06;;;;;;;9.97;6.03;;;;;;;;;;5096900;28;20193;-75
2022/04/01 07:56:32;;;;;;;8.17;6.17;;;;;;;;;;5096952;28;20297;-75
2022/04/01 07:58:59;;;;;;;7.97;6.30;;;;;;;;;;5113676;28;20182;-75
2022/04/01 08:01:25;;;;;;;7.50;6.27;;;;;;;;;;5113969;28;20274;-75
2022/04/01 08:03:51;;;;;;;8.77;6.37;;;;;;;;;;5096581;28;20214;-75
2022/04/01 08:06:17;;;;;;;7.10;5.97;;;;;;;;;;5113734;28;20198;-75
2022/04/01 08:08:43;;;;;;;6.17;5.30;;;;;;;;;;5096734;28;20182;-75
2022/04/01 08:11:09;;;;;;;7.20;6.10;;;;;;;;;;5113638;28;20205;-75
2022/04/01 08:13:35;;;;;;;8.03;5.47;;;;;;;;;;5096517;28;20664;-75
2022/04/01 08:16:01;;;;;;;6.63;5.90;;;;;;;;;;5113278;28;20178;-75
2022/04/01 08:18:27;;;;;;;6.93;5.73;;;;;;;;;;5113437;28;20182;-75
2022/04/01 08:20:53;;;;;;;7.93;5.27;;;;;;;;;;5113440;28;20640;-75
2022/04/01 08:23:19;;;;;;;6.73;5.57;;;;;;;;;;5113196;28;20213;-75
2022/04/01 08:25:49;;;;;;;7.20;5.73;;;;;;;;;;5112978;28;20194;-75
2022/04/01 08:28:15;;;;;;;6.27;5.17;;;;;;;;;;5113183;28;20199;-75
2022/04/01 08:30:41;;;;;;;6.70;5.70;;;;;;;;;;5114460;28;20196;-75
2022/04/01 08:33:08;;;;;;;6.27;5.17;;;;;;;;;;5096238;28;20186;-75
2022/04/01 08:35:35;;;;;;;7.77;5.83;;;;;;;;;;5113466;28;20186;-75
2022/04/01 08:38:01;;;;;;;5.47;4.40;;;;;;;;;;5113198;28;20205;-75
2022/04/01 08:40:29;;;;;;;6.83;5.60;;;;;;;;;;5114110;28;20177;-75
2022/04/01 08:42:55;;;;;;;7.40;5.40;;;;;;;;;;5113850;28;20680;-75
2022/04/01 08:45:21;;;;;;;8.40;6.03;;;;;;;;;;5096048;28;20691;-75
2022/04/01 08:47:48;;;;;;;8.60;5.83;;;;;;;;;;5112944;28;20198;-75
2022/04/01 08:50:15;;;;;;;8.13;5.60;;;;;;;;;;5112856;28;20773;-76
2022/04/01 08:52:41;;;;;;;6.63;5.20;;;;;;;;;;5112613;28;20178;-76
2022/04/01 08:55:08;;;;;;;6.27;5.30;;;;;;;;;;5112659;28;20292;-76
2022/04/01 08:57:38;;;;;;;6.50;5.10;;;;;;;;;;5095727;28;20249;-76
2022/04/01 09:00:16;;;;;;;6.37;5.13;;;;;;;;;;5095691;28;20179;-76
2022/04/01 09:02:43;;;;;;;5.80;5.20;;;;;;;;;;5112224;28;20177;-76
2022/04/01 09:05:10;;;;;;;6.10;5.47;;;;;;;;;;5095572;28;20182;-76
2022/04/01 09:07:36;;;;;;;6.07;5.33;;;;;;;;;;5112264;28;20197;-76
2022/04/01 09:10:02;;;;;;;6.17;4.73;;;;;;;;;;5112365;28;20166;-76
2022/04/01 09:12:31;;;;;;;7.17;5.10;;;;;;;;;;5112335;28;20179;-76
2022/04/01 09:14:57;;;;;;;6.63;5.23;;;;;;;;;;5112401;28;20254;-76
2022/04/01 09:17:39;;;;;;;6.07;5.20;;;;;;;;;;5112959;28;20210;-76
2022/04/01 09:20:10;;;;;;;6.87;5.10;;;;;;;;;;5112177;28;20202;-76
2022/04/01 09:22:37;;;;;;;6.17;5.07;;;;;;;;;;5113261;28;20263;-76
2022/04/01 09:25:09;;;;;;;6.30;4.97;;;;;;;;;;5095296;28;20218;-76
2022/04/01 09:27:56;;;;;;;5.60;5.00;;;;;;;;;;5113145;28;20599;-76
2022/04/01 09:30:23;;;;;;;11.47;10.00;;;;;;;;;;5111998;28;20202;-76
2022/04/01 09:33:00;;;;;;;6.97;6.27;;;;;;;;;;5112125;28;20265;-77
2022/04/01 09:35:28;;;;;;;6.93;5.70;;;;;;;;;;5095408;28;20178;-77
2022/04/01 09:37:57;;;;;;;6.37;5.30;;;;;;;;;;5111988;28;20192;-77
2022/04/01 09:40:24;;;;;;;7.50;5.50;;;;;;;;;;5112088;28;20174;-77
2022/04/01 09:42:51;;;;;;;13.33;10.47;;;;;;;;;;5094917;28;20182;-76
2022/04/01 09:45:27;;;;;;;14.93;12.17;;;;;;;;;;5095648;28;20182;-80
2022/04/01 09:47:57;;;;;;;17.83;14.77;;;;;;;;;;5112294;28;20243;-77
2022/04/01 09:50:26;;;;;;;18.70;13.80;;;;;;;;;;5112877;28;20225;-80
2022/04/01 09:52:52;;;;;;;5.70;4.97;;;;;;;;;;5111973;28;20225;-78
2022/04/01 09:55:19;;;;;;;10.57;7.60;;;;;;;;;;5094666;28;20182;-77
2022/04/01 09:57:45;;;;;;;11.00;7.50;;;;;;;;;;5112016;28;20278;-77
2022/04/01 10:00:11;;;;;;;19.10;12.73;;;;;;;;;;5111987;28;20177;-77
2022/04/01 10:02:38;;;;;;;7.67;6.03;;;;;;;;;;5094742;28;20178;-77
2022/04/01 10:05:06;;;;;;;9.30;8.27;;;;;;;;;;5111575;28;20203;-76
2022/04/01 10:07:33;;;;;;;7.30;6.10;;;;;;;;;;5111396;28;20186;-76
2022/04/01 10:10:00;;;;;;;7.50;6.03;;;;;;;;;;5094370;28;20186;-76
2022/04/01 10:12:27;;;;;;;8.30;6.97;;;;;;;;;;5094281;28;20640;-75
2022/04/01 10:14:58;;;;;;;8.13;6.77;;;;;;;;;;5111528;28;20632;-76
2022/04/01 10:17:27;;;;;;;7.23;5.90;;;;;;;;;;5112548;28;20210;-75
2022/04/01 10:19:54;;;;;;;10.00;7.13;;;;;;;;;;5111552;28;20544;-75
2022/04/01 10:22:20;;;;;;;11.50;10.23;;;;;;;;;;5111050;28;20182;-76
2022/04/01 10:25:04;;;;;;;13.93;9.90;;;;;;;;;;5094273;28;20207;-76
2022/04/01 10:27:41;;;;;;;8.87;6.30;;;;;;;;;;5112603;28;20196;-75
2022/04/01 10:30:09;;;;;;;14.27;10.90;;;;;;;;;;5094659;28;20207;-76
2022/04/01 10:32:35;;;;;;;8.60;7.30;;;;;;;;;;5112324;28;20206;-75
2022/04/01 10:35:02;;;;;;;9.67;7.50;;;;;;;;;;5111168;28;20210;-76
2022/04/01 10:37:30;;;;;;;6.87;5.90;;;;;;;;;;5111366;28;20241;-76
2022/04/01 10:40:05;;;;;;;7.70;6.27;;;;;;;;;;5111326;28;20597;-75
2022/04/01 10:42:32;;;;;;;8.40;6.47;;;;;;;;;;5111121;28;20250;-75
2022/04/01 10:45:28;;;;;;;7.23;6.23;;;;;;;;;;5094197;28;20221;-76
2022/04/01 10:53:33;;;;;;;7.90;7.10;;;;;;;;;;5112468;28;20572;-75
2022/04/01 10:56:38;;;;;;;8.67;7.13;;;;;;;;;;5110909;28;20644;-75
2022/04/01 10:59:17;;;;;;;11.63;9.77;;;;;;;;;;5012900;28;20706;-76
2022/04/01 11:01:53;;;;;;;7.77;6.77;;;;;;;;;;5012954;28;20177;-76
2022/04/01 11:04:19;;;;;;;8.90;6.40;;;;;;;;;;5080803;28;20268;-76
2022/04/01 11:07:03;;;;;;;8.33;6.60;;;;;;;;;;5111043;28;20202;-76
2022/04/01 11:09:36;;;;;;;8.50;6.37;;;;;;;;;;5112249;28;20582;-76
2022/04/01 11:12:19;;;;;;;9.13;6.90;;;;;;;;;;5093805;28;20247;-76
2022/04/01 11:14:57;;;;;;;7.40;6.47;;;;;;;;;;5111953;28;20167;-76
2022/04/01 11:17:25;;;;;;;8.00;6.30;;;;;;;;;;5111940;28;20212;-76
2022/04/01 11:20:05;;;;;;;9.33;7.43;;;;;;;;;;5111957;28;20168;-76
2022/04/01 11:22:34;;;;;;;7.67;6.40;;;;;;;;;;5094919;28;20186;-76
2022/04/01 11:25:00;;;;;;;9.10;7.40;;;;;;;;;;5114343;28;20212;-75
2022/04/01 11:27:26;;;;;;;8.50;7.20;;;;;;;;;;5097570;28;20210;-76
2022/04/01 11:30:13;;;;;;;8.30;7.10;;;;;;;;;;5097827;28;20224;-76
2022/04/01 11:32:40;;;;;;;8.77;7.27;;;;;;;;;;5097413;28;20740;-76
2022/04/01 11:35:06;;;;;;;18.07;13.50;;;;;;;;;;5097487;28;20182;-77
2022/04/01 11:37:51;;;;;;;12.30;8.53;;;;;;;;;;5114143;28;20195;-75
2022/04/01 11:40:27;;;;;;;10.27;7.67;;;;;;;;;;5114430;28;20179;-75
2022/04/01 11:42:56;;;;;;;8.77;7.30;;;;;;;;;;5114086;28;20266;-75
2022/04/01 11:45:23;;;;;;;17.67;11.93;;;;;;;;;;5115346;28;20174;-76
2022/04/01 11:47:49;;;;;;;9.33;8.03;;;;;;;;;;5113940;28;20222;-75
2022/04/01 11:50:17;;;;;;;24.13;16.60;;;;;;;;;;5114177;28;20179;-77
2022/04/01 11:52:45;;;;;;;10.27;7.73;;;;;;;;;;5097299;28;20178;-75
2022/04/01 11:55:15;;;;;;;21.40;14.70;;;;;;;;;;5114050;28;20182;-75
2022/04/01 11:57:42;;;;;;;29.57;18.50;;;;;;;;;;5113881;28;20198;-75
2022/04/01 12:00:18;;;;;;;121.83;66.70;;;;;;;;;;5096999;28;20187;-75
2022/04/01 12:02:48;;;;;;;18.30;14.97;;;;;;;;;;5096659;28;20293;-74
2022/04/01 12:05:15;;;;;;;8.20;7.30;;;;;;;;;;5113642;28;20183;-73
2022/04/01 12:10:27;;;;;;;8.63;7.13;;;;;;;;;;5114907;28;20190;-74
2022/04/01 12:13:00;;;;;;;10.97;9.87;;;;;;;;;;5113323;28;20186;-74
2022/04/01 12:15:52;;;;;;;7.47;6.53;;;;;;;;;;5096828;28;20642;-74
2022/04/01 12:18:19;;;;;;;8.13;6.70;;;;;;;;;;5114805;28;20286;-74
2022/04/01 12:20:53;;;;;;;8.30;6.90;;;;;;;;;;5113382;28;20170;-74
2022/04/01 12:23:23;;;;;;;8.60;6.70;;;;;;;;;;5113045;28;20251;-73
2022/04/01 12:25:50;;;;;;;8.17;6.50;;;;;;;;;;5096419;28;20179;-74
2022/04/01 12:28:17;;;;;;;8.23;7.10;;;;;;;;;;5096318;28;20194;-74
2022/04/01 12:30:47;;;;;;;9.83;6.90;;;;;;;;;;5114591;28;20678;-73
2022/04/01 12:33:17;;;;;;;9.27;6.97;;;;;;;;;;5112666;28;20290;-75
2022/04/01 12:35:56;;;;;;;8.70;7.37;;;;;;;;;;5113054;28;20216;-74
2022/04/01 12:38:23;;;;;;;9.63;7.70;;;;;;;;;;5113205;28;20267;-74
2022/04/01 12:40:53;;;;;;;9.13;7.20;;;;;;;;;;5113218;28;20183;-74
2022/04/01 12:43:33;;;;;;;7.40;6.20;;;;;;;;;;5096051;28;20252;-74
2022/04/01 12:46:01;;;;;;;9.43;7.13;;;;;;;;;;5112830;28;20265;-74
2022/04/01 12:48:28;;;;;;;10.27;7.43;;;;;;;;;;5095803;28;20178;-74
2022/04/01 12:50:56;;;;;;;11.10;7.70;;;;;;;;;;5113073;28;20588;-75
2022/04/01 12:53:22;;;;;;;9.67;8.30;;;;;;;;;;5113071;28;20179;-77
2022/04/01 12:55:48;;;;;;;9.33;7.67;;;;;;;;;;5096246;28;20179;-74
2022/04/01 12:58:16;;;;;;;8.73;6.83;;;;;;;;;;5096059;28;20263;-75
2022/04/01 13:00:43;;;;;;;8.60;6.53;;;;;;;;;;5112879;28;20187;-75
2022/04/01 13:03:09;;;;;;;7.97;6.37;;;;;;;;;;5095457;28;20188;-76
2022/04/01 13:05:35;;;;;;;8.10;6.40;;;;;;;;;;5095858;28;20186;-75
2022/04/01 13:08:01;;;;;;;7.97;7.07;;;;;;;;;;5112509;28;20285;-75
2022/04/01 13:10:27;;;;;;;8.10;7.30;;;;;;;;;;5112557;28;20175;-75
2022/04/01 13:12:55;;;;;;;7.97;6.73;;;;;;;;;;5112277;28;20789;-75
2022/04/01 13:15:24;;;;;;;10.07;7.77;;;;;;;;;;5113535;28;20191;-75
2022/04/01 13:17:59;;;;;;;10.20;7.90;;;;;;;;;;5112318;28;20242;-74
2022/04/01 13:20:29;;;;;;;9.50;7.33;;;;;;;;;;5112410;28;20289;-75
2022/04/01 13:22:56;;;;;;;13.87;10.53;;;;;;;;;;5112328;28;20171;-75
2022/04/01 13:25:25;;;;;;;12.20;9.20;;;;;;;;;;5112057;28;20181;-76
2022/04/01 13:27:51;;;;;;;12.93;9.80;;;;;;;;;;5111948;28;20198;-76
2022/04/01 13:30:18;;;;;;;10.83;7.40;;;;;;;;;;5095482;28;20189;-77
2022/04/01 13:32:44;;;;;;;9.13;6.73;;;;;;;;;;5112220;28;20696;-77
2022/04/01 13:35:10;;;;;;;10.50;7.67;;;;;;;;;;5095213;28;20274;-76
2022/04/01 13:37:37;;;;;;;8.03;6.90;;;;;;;;;;5112056;28;20202;-75
2022/04/01 13:40:04;;;;;;;7.10;6.33;;;;;;;;;;5111903;28;20207;-76
2022/04/01 13:42:30;;;;;;;8.07;7.20;;;;;;;;;;5111602;28;20182;-76
2022/04/01 13:44:56;;;;;;;7.73;6.73;;;;;;;;;;5094182;28;20685;-76
2022/04/01 13:47:25;;;;;;;8.17;6.83;;;;;;;;;;5094742;28;20205;-76
2022/04/01 13:49:54;;;;;;;7.90;7.10;;;;;;;;;;5095117;28;20277;-75
2022/04/01 13:52:20;;;;;;;9.00;7.17;;;;;;;;;;5111508;28;20194;-76
2022/04/01 13:54:49;;;;;;;8.50;6.27;;;;;;;;;;5094734;28;20309;-76
2022/04/01 13:57:15;;;;;;;8.57;7.23;;;;;;;;;;5111395;28;20281;-76
2022/04/01 13:59:41;;;;;;;8.00;6.60;;;;;;;;;;5094758;28;20225;-75
2022/04/01 14:02:12;;;;;;;8.23;6.27;;;;;;;;;;5108365;28;20770;-76
2022/04/01 14:04:39;;;;;;;12.43;8.67;;;;;;;;;;5101997;28;20275;-76
2022/04/01 14:07:09;;;;;;;7.87;6.07;;;;;;;;;;5106683;28;20199;-76
2022/04/01 14:09:36;;;;;;;7.93;6.47;;;;;;;;;;5100531;28;20180;-75
2022/04/01 14:12:02;;;;;;;9.63;6.70;;;;;;;;;;5090776;28;20175;-76
2022/04/01 14:14:28;;;;;;;8.53;6.73;;;;;;;;;;5091003;28;20653;-76
2022/04/01 14:16:55;;;;;;;9.40;6.40;;;;;;;;;;5090764;28;20309;-76
2022/04/01 14:19:21;;;;;;;8.60;7.00;;;;;;;;;;5090938;28;20205;-76
2022/04/01 14:21:47;;;;;;;7.97;6.50;;;;;;;;;;5090905;28;20271;-75
2022/04/01 14:24:13;;;;;;;7.07;5.90;;;;;;;;;;5091304;28;20641;-76
2022/04/01 14:26:40;;;;;;;6.90;5.47;;;;;;;;;;5091553;28;20200;-76
2022/04/01 14:31:57;;;;;;;5.90;5.30;;;;;;;;;;5092901;28;20636;-75
2022/04/01 14:34:30;;;;;;;6.20;5.23;;;;;;;;;;5092884;28;20559;-76
2022/04/01 14:36:57;;;;;;;6.43;5.30;;;;;;;;;;5091433;28;20204;-76
2022/04/01 14:39:23;;;;;;;8.97;5.53;;;;;;;;;;5091244;28;20184;-76
2022/04/01 14:41:49;;;;;;;6.93;5.43;;;;;;;;;;5091170;28;20550;-76
2022/04/01 14:44:15;;;;;;;7.67;5.63;;;;;;;;;;5091422;28;20210;-76
2022/04/01 14:46:42;;;;;;;8.67;6.97;;;;;;;;;;5074399;28;20202;-76
2022/04/01 14:49:08;;;;;;;6.63;4.57;;;;;;;;;;5091410;28;20180;-76
2022/04/01 14:51:34;;;;;;;6.10;5.37;;;;;;;;;;5092381;28;20178;-77
2022/04/01 14:54:00;;;;;;;8.87;5.83;;;;;;;;;;5091486;28;20183;-76
2022/04/01 14:56:26;;;;;;;10.27;6.13;;;;;;;;;;5075504;28;20565;-76
2022/04/01 14:58:52;;;;;;;8.80;5.77;;;;;;;;;;5078649;28;20191;-76
2022/04/01 15:01:18;;;;;;;12.23;8.30;;;;;;;;;;5082643;28;20257;-79
2022/04/01 15:03:44;;;;;;;9.50;6.43;;;;;;;;;;5087265;28;20207;-78
2022/04/01 15:06:11;;;;;;;6.57;4.57;;;;;;;;;;5101915;28;20213;-78
2022/04/01 15:08:37;;;;;;;8.47;6.57;;;;;;;;;;5102338;28;20172;-78
2022/04/01 15:11:03;;;;;;;7.33;5.90;;;;;;;;;;5085343;28;20175;-78
2022/04/01 15:13:29;;;;;;;7.30;5.73;;;;;;;;;;5101464;28;20174;-78
2022/04/01 15:15:56;;;;;;;8.33;5.47;;;;;;;;;;5084482;28;20187;-78